createdAt,value
2022-12-31T00:00:11.083Z,49.53
2022-12-31T00:01:11.070Z,49.43
2022-12-31T00:02:11.237Z,49.43
2022-12-31T00:03:11.283Z,49.53
2022-12-31T00:04:11.101Z,49.53
2022-12-31T00:05:11.111Z,49.55
2022-12-31T00:06:11.124Z,49.65
2022-12-31T00:07:11.142Z,49.53
2022-12-31T00:08:11.169Z,49.53
2022-12-31T00:09:11.202Z,49.43
2022-12-31T00:10:11.232Z,49.43
2022-12-31T00:11:11.245Z,49.43
2022-12-31T00:12:11.245Z,49.43
2022-12-31T00:13:11.285Z,49.43
2022-12-31T00:14:11.288Z,49.43
2022-12-31T00:15:11.309Z,49.53
2022-12-31T00:16:12.452Z,49.53
2022-12-31T00:17:11.388Z,49.43
2022-12-31T00:18:11.374Z,49.53
2022-12-31T00:19:11.328Z,49.53
2022-12-31T00:20:11.340Z,49.53
2022-12-31T00:21:11.355Z,49.53
2022-12-31T00:22:11.377Z,49.43
2022-12-31T00:23:11.438Z,49.43
2022-12-31T00:24:11.416Z,49.43
2022-12-31T00:25:11.426Z,49.43
2022-12-31T00:26:11.477Z,49.43
2022-12-31T00:27:12.642Z,49.53
2022-12-31T00:28:11.435Z,49.43
2022-12-31T00:29:11.460Z,49.53
2022-12-31T00:30:11.501Z,49.43
2022-12-31T00:31:11.508Z,49.43
2022-12-31T00:32:11.491Z,49.43
2022-12-31T00:33:11.544Z,49.53
2022-12-31T00:34:11.513Z,49.43
2022-12-31T00:35:11.534Z,49.43
2022-12-31T00:36:11.549Z,49.43
2022-12-31T00:37:11.545Z,49.33
2022-12-31T00:38:11.570Z,49.43
2022-12-31T00:39:11.591Z,49.33
2022-12-31T00:40:11.610Z,49.33
2022-12-31T00:41:11.633Z,49.43
2022-12-31T00:42:11.728Z,49.33
2022-12-31T00:43:11.651Z,49.33
2022-12-31T00:44:11.674Z,49.43
2022-12-31T00:45:11.686Z,49.43
2022-12-31T00:46:11.765Z,49.43
2022-12-31T00:47:11.705Z,49.43
2022-12-31T00:48:11.729Z,49.43
2022-12-31T00:49:11.746Z,49.43
2022-12-31T00:50:11.765Z,49.43
2022-12-31T00:51:11.767Z,49.43
2022-12-31T00:52:11.770Z,49.43
2022-12-31T00:53:11.801Z,49.43
2022-12-31T00:54:11.781Z,49.43
2022-12-31T00:55:11.797Z,49.43
2022-12-31T00:56:11.844Z,49.43
2022-12-31T00:57:11.819Z,49.33
2022-12-31T00:58:11.909Z,49.33
2022-12-31T00:59:11.873Z,49.43
2022-12-31T01:00:11.880Z,49.43
2022-12-31T01:01:12.132Z,49.43
2022-12-31T01:02:12.094Z,49.43
2022-12-31T01:03:12.017Z,49.43
2022-12-31T01:04:11.930Z,49.33
2022-12-31T01:05:11.931Z,49.43
2022-12-31T01:06:11.943Z,49.43
2022-12-31T01:07:11.940Z,49.33
2022-12-31T01:08:11.949Z,49.33
2022-12-31T01:09:11.986Z,49.33
2022-12-31T01:10:11.993Z,49.43
2022-12-31T01:11:12.009Z,49.43
2022-12-31T01:12:12.019Z,49.33
2022-12-31T01:13:12.051Z,49.33
2022-12-31T01:14:12.058Z,49.33
2022-12-31T01:15:12.025Z,49.43
2022-12-31T01:16:12.146Z,49.43
2022-12-31T01:17:12.058Z,49.43
2022-12-31T01:18:12.088Z,49.43
2022-12-31T01:19:12.398Z,49.43
2022-12-31T01:20:12.127Z,49.33
2022-12-31T01:21:12.150Z,49.33
2022-12-31T01:22:12.174Z,49.43
2022-12-31T01:23:12.229Z,49.43
2022-12-31T01:24:12.352Z,49.43
2022-12-31T01:25:12.233Z,49.43
2022-12-31T01:26:12.240Z,49.43
2022-12-31T01:27:12.271Z,49.43
2022-12-31T01:28:12.277Z,49.43
2022-12-31T01:29:12.288Z,49.33
2022-12-31T01:30:12.347Z,49.43
2022-12-31T01:31:12.353Z,49.33
2022-12-31T01:32:12.302Z,49.33
2022-12-31T01:33:12.326Z,49.33
2022-12-31T01:34:12.356Z,49.33
2022-12-31T01:35:12.374Z,49.33
2022-12-31T01:36:12.405Z,49.33
2022-12-31T01:37:12.421Z,49.33
2022-12-31T01:38:12.461Z,49.33
2022-12-31T01:39:12.477Z,49.33
2022-12-31T01:40:12.492Z,49.43
2022-12-31T01:41:12.533Z,49.43
2022-12-31T01:42:12.560Z,49.43
2022-12-31T01:43:12.543Z,49.33
2022-12-31T01:44:12.577Z,49.33
2022-12-31T01:45:12.595Z,49.33
2022-12-31T01:46:12.661Z,49.33
2022-12-31T01:47:12.571Z,49.33
2022-12-31T01:48:12.595Z,49.33
2022-12-31T01:49:12.627Z,49.33
2022-12-31T01:50:12.623Z,49.22
2022-12-31T01:51:12.643Z,49.22
2022-12-31T01:52:12.660Z,49.33
2022-12-31T01:53:12.692Z,49.33
2022-12-31T01:54:12.707Z,49.33
2022-12-31T01:55:12.732Z,49.33
2022-12-31T01:56:12.740Z,49.33
2022-12-31T01:57:12.771Z,49.22
2022-12-31T01:58:12.789Z,49.22
2022-12-31T01:59:12.825Z,49.22
2022-12-31T02:00:12.797Z,49.22
2022-12-31T02:01:12.869Z,49.33
2022-12-31T02:02:12.955Z,49.33
2022-12-31T02:03:12.902Z,49.33
2022-12-31T02:04:12.890Z,49.22
2022-12-31T02:05:12.884Z,49.22
2022-12-31T02:06:12.936Z,49.33
2022-12-31T02:07:12.896Z,49.33
2022-12-31T02:08:12.914Z,49.33
2022-12-31T02:09:12.925Z,49.33
2022-12-31T02:10:12.949Z,49.22
2022-12-31T02:11:12.964Z,49.22
2022-12-31T02:12:12.957Z,49.33
2022-12-31T02:13:13.015Z,49.22
2022-12-31T02:14:13.028Z,49.22
2022-12-31T02:15:13.017Z,49.22
2022-12-31T02:16:13.084Z,49.33
2022-12-31T02:17:13.006Z,49.33
2022-12-31T02:18:13.103Z,49.33
2022-12-31T02:19:13.010Z,49.33
2022-12-31T02:20:13.027Z,49.33
2022-12-31T02:21:13.042Z,49.33
2022-12-31T02:22:13.096Z,49.22
2022-12-31T02:23:13.068Z,49.22
2022-12-31T02:24:13.083Z,49.22
2022-12-31T02:25:13.129Z,49.33
2022-12-31T02:26:13.140Z,49.22
2022-12-31T02:27:13.160Z,49.33
2022-12-31T02:28:13.186Z,49.33
2022-12-31T02:29:13.218Z,49.43
2022-12-31T02:30:13.235Z,49.63
2022-12-31T02:31:13.295Z,49.33
2022-12-31T02:32:13.281Z,49.33
2022-12-31T02:33:13.282Z,49.33
2022-12-31T02:34:13.319Z,49.33
2022-12-31T02:35:13.327Z,49.22
2022-12-31T02:36:13.350Z,49.33
2022-12-31T02:37:13.384Z,49.22
2022-12-31T02:38:13.347Z,49.33
2022-12-31T02:39:13.377Z,49.22
2022-12-31T02:40:13.402Z,49.22
2022-12-31T02:41:13.413Z,49.22
2022-12-31T02:42:13.450Z,49.22
2022-12-31T02:43:13.461Z,49.33
2022-12-31T02:44:13.472Z,49.22
2022-12-31T02:45:13.482Z,49.22
2022-12-31T02:46:13.571Z,49.13
2022-12-31T02:47:13.538Z,49.13
2022-12-31T02:48:13.551Z,49.13
2022-12-31T02:49:13.573Z,49.13
2022-12-31T02:50:13.630Z,49.22
2022-12-31T02:51:13.643Z,49.13
2022-12-31T02:52:13.703Z,49.13
2022-12-31T02:53:13.661Z,49.13
2022-12-31T02:54:13.685Z,49.22
2022-12-31T02:55:13.700Z,49.73
2022-12-31T02:56:13.938Z,49.22
2022-12-31T02:57:13.745Z,49.22
2022-12-31T02:58:13.754Z,49.22
2022-12-31T02:59:13.753Z,49.13
2022-12-31T03:00:13.784Z,49.22
2022-12-31T03:01:13.900Z,49.13
2022-12-31T03:02:13.971Z,49.22
2022-12-31T03:03:13.807Z,49.22
2022-12-31T03:04:13.820Z,49.22
2022-12-31T03:05:13.863Z,49.13
2022-12-31T03:06:13.862Z,49.13
2022-12-31T03:07:13.840Z,49.13
2022-12-31T03:08:13.847Z,49.13
2022-12-31T03:09:13.875Z,49.22
2022-12-31T03:10:13.890Z,49.22
2022-12-31T03:11:13.894Z,49.33
2022-12-31T03:12:13.922Z,49.22
2022-12-31T03:13:13.926Z,49.22
2022-12-31T03:14:13.936Z,49.22
2022-12-31T03:15:13.972Z,49.13
2022-12-31T03:16:14.028Z,49.22
2022-12-31T03:17:14.035Z,49.10
2022-12-31T03:18:13.989Z,49.10
2022-12-31T03:19:14.012Z,49.13
2022-12-31T03:20:14.006Z,49.01
2022-12-31T03:21:14.009Z,49.13
2022-12-31T03:22:14.066Z,49.22
2022-12-31T03:23:14.026Z,49.22
2022-12-31T03:24:14.072Z,49.13
2022-12-31T03:25:14.091Z,49.13
2022-12-31T03:26:14.103Z,49.10
2022-12-31T03:27:14.390Z,49.13
2022-12-31T03:28:14.117Z,49.13
2022-12-31T03:29:14.157Z,49.13
2022-12-31T03:30:14.234Z,49.22
2022-12-31T03:31:14.262Z,49.13
2022-12-31T03:32:14.215Z,49.13
2022-12-31T03:33:14.238Z,49.33
2022-12-31T03:34:14.252Z,49.13
2022-12-31T03:35:14.260Z,49.22
2022-12-31T03:36:14.277Z,49.22
2022-12-31T03:37:14.316Z,49.13
2022-12-31T03:38:14.347Z,49.13
2022-12-31T03:39:14.358Z,49.10
2022-12-31T03:40:14.398Z,49.21
2022-12-31T03:41:14.371Z,49.10
2022-12-31T03:42:14.411Z,49.01
2022-12-31T03:43:14.422Z,49.10
2022-12-31T03:44:14.439Z,49.01
2022-12-31T03:45:14.463Z,49.10
2022-12-31T03:46:14.555Z,49.10
2022-12-31T03:47:14.530Z,49.13
2022-12-31T03:48:14.496Z,49.10
2022-12-31T03:49:14.519Z,49.13
2022-12-31T03:50:14.551Z,49.13
2022-12-31T03:51:14.578Z,49.13
2022-12-31T03:52:14.601Z,49.33
2022-12-31T03:53:14.611Z,49.13
2022-12-31T03:54:14.674Z,49.22
2022-12-31T03:55:14.626Z,49.13
2022-12-31T03:56:14.632Z,49.22
2022-12-31T03:57:14.671Z,49.22
2022-12-31T03:58:14.679Z,49.22
2022-12-31T03:59:14.693Z,49.22
2022-12-31T04:00:14.728Z,49.22
2022-12-31T04:01:14.861Z,49.22
2022-12-31T04:02:14.920Z,49.33
2022-12-31T04:03:14.834Z,49.22
2022-12-31T04:04:14.775Z,49.22
2022-12-31T04:05:14.794Z,49.22
2022-12-31T04:06:14.821Z,49.22
2022-12-31T04:07:14.856Z,49.13
2022-12-31T04:08:14.873Z,49.22
2022-12-31T04:09:14.878Z,49.13
2022-12-31T04:10:14.924Z,49.22
2022-12-31T04:11:20.662Z,49.13
2022-12-31T04:12:14.900Z,49.22
2022-12-31T04:13:14.937Z,49.22
2022-12-31T04:14:14.959Z,49.13
2022-12-31T04:15:14.976Z,49.10
2022-12-31T04:16:15.070Z,49.33
2022-12-31T04:17:14.998Z,49.10
2022-12-31T04:18:15.005Z,49.13
2022-12-31T04:19:15.019Z,49.10
2022-12-31T04:20:15.049Z,49.22
2022-12-31T04:21:15.032Z,49.13
2022-12-31T04:22:15.050Z,49.10
2022-12-31T04:23:15.068Z,49.13
2022-12-31T04:24:15.085Z,49.10
2022-12-31T04:25:15.118Z,49.10
2022-12-31T04:26:15.158Z,49.13
2022-12-31T04:27:15.155Z,49.10
2022-12-31T04:28:15.176Z,49.10
2022-12-31T04:29:15.202Z,49.10
2022-12-31T04:30:15.356Z,49.10
2022-12-31T04:31:15.240Z,49.10
2022-12-31T04:32:15.270Z,49.10
2022-12-31T04:33:15.279Z,49.01
2022-12-31T04:34:15.286Z,49.10
2022-12-31T04:35:15.310Z,49.01
2022-12-31T04:36:15.342Z,49.01
2022-12-31T04:37:15.339Z,49.10
2022-12-31T04:38:15.355Z,49.01
2022-12-31T04:39:15.375Z,49.01
2022-12-31T04:40:15.431Z,49.01
2022-12-31T04:41:15.396Z,49.01
2022-12-31T04:42:15.435Z,49.01
2022-12-31T04:43:15.394Z,49.01
2022-12-31T04:44:15.430Z,48.90
2022-12-31T04:45:15.467Z,49.21
2022-12-31T04:46:15.518Z,49.01
2022-12-31T04:47:20.217Z,49.01
2022-12-31T04:48:15.491Z,49.01
2022-12-31T04:49:15.452Z,49.01
2022-12-31T04:50:15.472Z,49.01
2022-12-31T04:51:15.490Z,49.01
2022-12-31T04:52:15.517Z,49.01
2022-12-31T04:53:15.532Z,49.01
2022-12-31T04:54:15.563Z,49.01
2022-12-31T04:55:15.578Z,49.01
2022-12-31T04:56:15.601Z,48.90
2022-12-31T04:57:15.615Z,48.90
2022-12-31T04:58:15.661Z,48.90
2022-12-31T04:59:15.622Z,48.90
2022-12-31T05:00:15.654Z,49.01
2022-12-31T05:01:15.871Z,48.90
2022-12-31T05:02:15.864Z,49.01
2022-12-31T05:03:15.712Z,49.01
2022-12-31T05:04:15.735Z,49.01
2022-12-31T05:05:15.748Z,49.10
2022-12-31T05:06:15.778Z,49.01
2022-12-31T05:07:15.793Z,49.10
2022-12-31T05:08:15.813Z,49.01
2022-12-31T05:09:15.843Z,49.01
2022-12-31T05:10:15.854Z,49.01
2022-12-31T05:11:15.872Z,48.90
2022-12-31T05:12:15.887Z,48.90
2022-12-31T05:13:15.908Z,48.90
2022-12-31T05:14:15.954Z,48.90
2022-12-31T05:15:15.955Z,48.90
2022-12-31T05:16:16.060Z,48.90
2022-12-31T05:17:15.984Z,48.90
2022-12-31T05:18:16.038Z,49.10
2022-12-31T05:19:16.021Z,49.01
2022-12-31T05:20:15.994Z,48.90
2022-12-31T05:21:16.006Z,48.90
2022-12-31T05:22:16.039Z,48.90
2022-12-31T05:23:16.025Z,48.90
2022-12-31T05:24:16.046Z,48.90
2022-12-31T05:25:16.063Z,49.01
2022-12-31T05:26:16.081Z,49.01
2022-12-31T05:27:16.103Z,48.90
2022-12-31T05:28:16.142Z,48.90
2022-12-31T05:29:16.156Z,48.90
2022-12-31T05:30:16.587Z,48.90
2022-12-31T05:31:16.212Z,48.90
2022-12-31T05:32:16.232Z,48.90
2022-12-31T05:33:16.239Z,49.01
2022-12-31T05:34:16.248Z,49.01
2022-12-31T05:35:16.254Z,48.90
2022-12-31T05:36:16.286Z,48.90
2022-12-31T05:37:16.284Z,48.90
2022-12-31T05:38:16.462Z,48.90
2022-12-31T05:39:16.341Z,48.90
2022-12-31T05:40:16.361Z,48.90
2022-12-31T05:41:16.390Z,48.90
2022-12-31T05:42:16.383Z,48.90
2022-12-31T05:43:16.369Z,48.80
2022-12-31T05:44:16.379Z,48.80
2022-12-31T05:45:16.399Z,49.10
2022-12-31T05:46:16.537Z,48.90
2022-12-31T05:47:16.425Z,49.01
2022-12-31T05:48:16.449Z,48.80
2022-12-31T05:49:16.473Z,48.80
2022-12-31T05:50:16.483Z,48.90
2022-12-31T05:51:16.507Z,48.90
2022-12-31T05:52:16.522Z,48.90
2022-12-31T05:53:16.542Z,48.90
2022-12-31T05:54:16.576Z,48.90
2022-12-31T05:55:16.582Z,49.01
2022-12-31T05:56:16.578Z,48.90
2022-12-31T05:57:16.609Z,49.01
2022-12-31T05:58:16.640Z,48.90
2022-12-31T05:59:16.611Z,48.90
2022-12-31T06:00:16.632Z,48.90
2022-12-31T06:01:16.686Z,48.80
2022-12-31T06:02:16.808Z,48.80
2022-12-31T06:03:16.793Z,48.90
2022-12-31T06:04:16.647Z,48.90
2022-12-31T06:05:19.709Z,49.30
2022-12-31T06:06:16.672Z,49.01
2022-12-31T06:07:16.710Z,48.90
2022-12-31T06:08:16.743Z,48.90
2022-12-31T06:09:16.761Z,48.90
2022-12-31T06:10:16.777Z,49.01
2022-12-31T06:11:16.839Z,48.90
2022-12-31T06:12:16.800Z,48.90
2022-12-31T06:13:16.821Z,48.90
2022-12-31T06:14:16.860Z,48.90
2022-12-31T06:15:16.876Z,48.90
2022-12-31T06:16:16.941Z,48.90
2022-12-31T06:17:16.892Z,48.90
2022-12-31T06:18:16.947Z,48.80
2022-12-31T06:19:16.919Z,48.80
2022-12-31T06:20:16.945Z,48.80
2022-12-31T06:21:16.980Z,48.80
2022-12-31T06:22:16.948Z,48.90
2022-12-31T06:23:16.979Z,48.80
2022-12-31T06:24:17.008Z,48.80
2022-12-31T06:25:17.026Z,48.90
2022-12-31T06:26:17.079Z,48.80
2022-12-31T06:27:17.044Z,48.80
2022-12-31T06:28:20.304Z,48.80
2022-12-31T06:29:17.054Z,48.80
2022-12-31T06:30:17.059Z,48.80
2022-12-31T06:31:17.175Z,48.80
2022-12-31T06:32:17.105Z,48.80
2022-12-31T06:33:17.108Z,48.90
2022-12-31T06:34:17.153Z,48.90
2022-12-31T06:35:17.152Z,48.90
2022-12-31T06:36:17.178Z,48.90
2022-12-31T06:37:17.199Z,48.90
2022-12-31T06:38:17.219Z,49.01
2022-12-31T06:39:17.242Z,48.90
2022-12-31T06:40:17.264Z,48.80
2022-12-31T06:41:17.291Z,48.80
2022-12-31T06:42:17.300Z,48.80
2022-12-31T06:43:17.319Z,48.80
2022-12-31T06:44:17.326Z,48.80
2022-12-31T06:45:17.339Z,48.80
2022-12-31T06:46:17.422Z,48.80
2022-12-31T06:47:17.380Z,48.80
2022-12-31T06:48:17.387Z,48.80
2022-12-31T06:49:17.403Z,48.80
2022-12-31T06:50:17.446Z,48.80
2022-12-31T06:51:17.897Z,48.80
2022-12-31T06:52:17.474Z,48.80
2022-12-31T06:53:17.493Z,48.80
2022-12-31T06:54:17.589Z,48.80
2022-12-31T06:55:17.570Z,48.80
2022-12-31T06:56:17.613Z,48.80
2022-12-31T06:57:17.598Z,48.80
2022-12-31T06:58:17.604Z,48.80
2022-12-31T06:59:17.626Z,48.80
2022-12-31T07:00:17.653Z,48.80
2022-12-31T07:01:17.797Z,48.80
2022-12-31T07:02:17.747Z,48.80
2022-12-31T07:03:17.751Z,48.70
2022-12-31T07:04:17.739Z,48.70
2022-12-31T07:05:17.752Z,48.70
2022-12-31T07:06:17.941Z,48.70
2022-12-31T07:07:17.774Z,48.70
2022-12-31T07:08:17.783Z,48.80
2022-12-31T07:09:17.823Z,48.70
2022-12-31T07:10:17.827Z,48.70
2022-12-31T07:11:17.836Z,48.70
2022-12-31T07:12:17.853Z,48.70
2022-12-31T07:13:17.888Z,48.70
2022-12-31T07:14:18.060Z,48.70
2022-12-31T07:15:17.884Z,48.70
2022-12-31T07:16:17.981Z,48.70
2022-12-31T07:17:17.930Z,48.70
2022-12-31T07:18:17.955Z,48.70
2022-12-31T07:19:17.958Z,48.70
2022-12-31T07:20:17.973Z,48.70
2022-12-31T07:21:18.038Z,48.70
2022-12-31T07:22:18.021Z,48.80
2022-12-31T07:23:18.027Z,48.70
2022-12-31T07:24:18.074Z,48.70
2022-12-31T07:25:18.098Z,48.70
2022-12-31T07:26:18.109Z,48.70
2022-12-31T07:27:18.122Z,48.70
2022-12-31T07:28:18.140Z,48.70
2022-12-31T07:29:18.163Z,48.70
2022-12-31T07:30:18.184Z,48.70
2022-12-31T07:31:18.299Z,48.70
2022-12-31T07:32:18.237Z,48.70
2022-12-31T07:33:18.263Z,48.70
2022-12-31T07:34:18.266Z,48.70
2022-12-31T07:35:18.249Z,48.70
2022-12-31T07:36:18.277Z,48.70
2022-12-31T07:37:18.302Z,48.70
2022-12-31T07:38:18.295Z,48.70
2022-12-31T07:39:18.322Z,48.70
2022-12-31T07:40:18.295Z,48.70
2022-12-31T07:41:18.350Z,48.70
2022-12-31T07:42:18.322Z,48.70
2022-12-31T07:43:18.350Z,48.70
2022-12-31T07:44:18.367Z,48.58
2022-12-31T07:45:18.397Z,48.58
2022-12-31T07:46:18.465Z,48.60
2022-12-31T07:47:18.464Z,48.70
2022-12-31T07:48:18.450Z,48.68
2022-12-31T07:49:18.443Z,48.58
2022-12-31T07:50:18.492Z,48.58
2022-12-31T07:51:18.460Z,48.58
2022-12-31T07:52:18.488Z,48.58
2022-12-31T07:53:18.517Z,48.58
2022-12-31T07:54:18.562Z,48.48
2022-12-31T07:55:18.533Z,48.48
2022-12-31T07:56:18.561Z,48.48
2022-12-31T07:57:18.596Z,48.48
2022-12-31T07:58:18.626Z,48.48
2022-12-31T07:59:24.057Z,48.48
2022-12-31T08:00:18.614Z,48.48
2022-12-31T08:01:18.807Z,48.48
2022-12-31T08:02:18.814Z,48.48
2022-12-31T08:03:18.707Z,48.48
2022-12-31T08:04:18.752Z,48.38
2022-12-31T08:05:18.753Z,48.38
2022-12-31T08:06:18.772Z,48.48
2022-12-31T08:07:18.789Z,48.48
2022-12-31T08:08:18.836Z,48.38
2022-12-31T08:09:18.804Z,48.38
2022-12-31T08:10:18.860Z,48.48
2022-12-31T08:11:18.823Z,48.38
2022-12-31T08:12:18.833Z,48.38
2022-12-31T08:13:18.877Z,48.38
2022-12-31T08:14:18.878Z,48.38
2022-12-31T08:15:18.899Z,48.48
2022-12-31T08:16:18.909Z,48.38
2022-12-31T08:17:18.910Z,48.58
2022-12-31T08:18:18.924Z,48.48
2022-12-31T08:19:18.938Z,48.38
2022-12-31T08:20:18.998Z,48.48
2022-12-31T08:21:18.972Z,48.38
2022-12-31T08:22:18.986Z,48.28
2022-12-31T08:23:19.013Z,48.38
2022-12-31T08:24:19.219Z,48.38
2022-12-31T08:25:19.048Z,48.16
2022-12-31T08:26:19.103Z,48.25
2022-12-31T08:27:19.153Z,48.16
2022-12-31T08:28:19.142Z,48.16
2022-12-31T08:29:19.164Z,48.16
2022-12-31T08:30:19.198Z,48.16
2022-12-31T08:31:19.349Z,48.35
2022-12-31T08:32:19.243Z,48.16
2022-12-31T08:33:19.263Z,48.05
2022-12-31T08:34:19.291Z,48.05
2022-12-31T08:35:19.326Z,48.16
2022-12-31T08:36:19.351Z,47.96
2022-12-31T08:37:19.391Z,48.05
2022-12-31T08:38:19.362Z,47.96
2022-12-31T08:39:19.384Z,47.96
2022-12-31T08:40:19.438Z,47.96
2022-12-31T08:41:19.410Z,47.85
2022-12-31T08:42:19.595Z,47.85
2022-12-31T08:43:19.423Z,47.85
2022-12-31T08:44:19.457Z,47.85
2022-12-31T08:45:19.479Z,47.85
2022-12-31T08:46:19.530Z,47.85
2022-12-31T08:47:19.487Z,47.85
2022-12-31T08:48:19.763Z,47.85
2022-12-31T08:49:19.556Z,47.83
2022-12-31T08:50:19.598Z,47.73
2022-12-31T08:51:19.611Z,47.73
2022-12-31T08:52:19.619Z,47.83
2022-12-31T08:53:19.594Z,47.73
2022-12-31T08:54:19.643Z,48.03
2022-12-31T08:55:19.629Z,47.73
2022-12-31T08:56:19.681Z,47.73
2022-12-31T08:57:19.657Z,47.73
2022-12-31T08:58:19.708Z,47.73
2022-12-31T08:59:19.678Z,47.73
2022-12-31T09:00:19.693Z,47.73
2022-12-31T09:01:19.891Z,47.63
2022-12-31T09:02:19.725Z,47.63
2022-12-31T09:03:19.763Z,47.73
2022-12-31T09:04:19.860Z,47.63
2022-12-31T09:05:19.801Z,47.63
2022-12-31T09:06:19.835Z,47.63
2022-12-31T09:07:19.842Z,47.63
2022-12-31T09:08:19.855Z,47.63
2022-12-31T09:09:19.888Z,47.63
2022-12-31T09:10:19.914Z,47.53
2022-12-31T09:11:23.111Z,47.63
2022-12-31T09:12:19.912Z,47.53
2022-12-31T09:13:19.938Z,47.53
2022-12-31T09:14:19.995Z,47.43
2022-12-31T09:15:19.963Z,47.53
2022-12-31T09:16:20.062Z,47.53
2022-12-31T09:17:20.223Z,47.43
2022-12-31T09:18:20.038Z,47.41
2022-12-31T09:19:20.056Z,47.53
2022-12-31T09:20:20.064Z,47.41
2022-12-31T09:21:20.096Z,47.31
2022-12-31T09:22:20.088Z,47.31
2022-12-31T09:23:20.099Z,47.31
2022-12-31T09:24:20.157Z,47.41
2022-12-31T09:25:20.154Z,47.41
2022-12-31T09:26:20.177Z,47.71
2022-12-31T09:27:27.240Z,47.41
2022-12-31T09:28:20.151Z,47.31
2022-12-31T09:29:20.173Z,47.41
2022-12-31T09:30:20.216Z,48.21
2022-12-31T09:31:20.297Z,47.61
2022-12-31T09:32:20.187Z,47.41
2022-12-31T09:33:20.232Z,47.41
2022-12-31T09:34:20.231Z,47.41
2022-12-31T09:35:20.226Z,47.31
2022-12-31T09:36:26.374Z,47.31
2022-12-31T09:37:20.245Z,47.20
2022-12-31T09:38:20.240Z,47.20
2022-12-31T09:39:20.287Z,47.11
2022-12-31T09:40:20.629Z,47.61
2022-12-31T09:41:20.301Z,47.11
2022-12-31T09:42:20.311Z,47.11
2022-12-31T09:43:20.327Z,47.00
2022-12-31T09:44:20.364Z,47.00
2022-12-31T09:45:20.346Z,47.00
2022-12-31T09:46:20.429Z,46.88
2022-12-31T09:47:20.378Z,46.88
2022-12-31T09:48:20.417Z,46.88
2022-12-31T09:49:20.386Z,46.98
2022-12-31T09:50:20.486Z,46.88
2022-12-31T09:51:25.214Z,46.88
2022-12-31T09:52:20.449Z,46.88
2022-12-31T09:53:20.486Z,46.88
2022-12-31T09:54:20.524Z,46.88
2022-12-31T09:55:20.509Z,46.88
2022-12-31T09:56:20.532Z,46.78
2022-12-31T09:57:20.559Z,46.78
2022-12-31T09:58:20.591Z,46.78
2022-12-31T09:59:20.618Z,46.78
2022-12-31T10:00:20.595Z,46.78
2022-12-31T10:01:20.739Z,46.68
2022-12-31T10:02:20.928Z,46.68
2022-12-31T10:03:20.748Z,46.88
2022-12-31T10:04:22.989Z,46.78
2022-12-31T10:05:20.681Z,46.88
2022-12-31T10:06:20.720Z,46.78
2022-12-31T10:07:20.712Z,46.68
2022-12-31T10:08:20.701Z,46.68
2022-12-31T10:09:20.710Z,46.78
2022-12-31T10:10:20.741Z,46.78
2022-12-31T10:11:20.772Z,46.78
2022-12-31T10:12:20.758Z,46.68
2022-12-31T10:13:20.784Z,46.68
2022-12-31T10:14:20.763Z,46.68
2022-12-31T10:15:20.782Z,46.68
2022-12-31T10:16:20.925Z,46.68
2022-12-31T10:17:20.814Z,46.68
2022-12-31T10:18:20.815Z,46.58
2022-12-31T10:19:20.830Z,46.58
2022-12-31T10:20:20.851Z,46.58
2022-12-31T10:21:20.892Z,46.58
2022-12-31T10:22:20.923Z,46.58
2022-12-31T10:23:20.987Z,46.56
2022-12-31T10:24:20.946Z,46.46
2022-12-31T10:25:20.954Z,46.46
2022-12-31T10:26:20.977Z,46.46
2022-12-31T10:27:20.961Z,46.46
2022-12-31T10:28:20.972Z,46.56
2022-12-31T10:29:20.997Z,46.46
2022-12-31T10:30:21.035Z,46.46
2022-12-31T10:31:21.043Z,46.46
2022-12-31T10:32:24.942Z,46.46
2022-12-31T10:33:21.044Z,46.56
2022-12-31T10:34:21.088Z,46.56
2022-12-31T10:35:21.048Z,46.56
2022-12-31T10:36:21.063Z,46.56
2022-12-31T10:37:21.088Z,46.56
2022-12-31T10:38:21.103Z,46.56
2022-12-31T10:39:24.527Z,46.56
2022-12-31T10:40:21.095Z,46.68
2022-12-31T10:41:21.204Z,46.68
2022-12-31T10:42:21.137Z,46.68
2022-12-31T10:43:21.154Z,46.68
2022-12-31T10:44:21.138Z,46.68
2022-12-31T10:45:21.175Z,46.78
2022-12-31T10:46:23.365Z,46.68
2022-12-31T10:47:21.197Z,46.78
2022-12-31T10:48:21.212Z,46.78
2022-12-31T10:49:21.240Z,46.78
2022-12-31T10:50:21.292Z,46.78
2022-12-31T10:51:21.317Z,46.78
2022-12-31T10:52:21.285Z,46.78
2022-12-31T10:53:21.311Z,46.78
2022-12-31T10:54:21.331Z,46.78
2022-12-31T10:55:21.360Z,46.78
2022-12-31T10:56:21.613Z,46.68
2022-12-31T10:57:21.396Z,46.68
2022-12-31T10:58:21.382Z,46.78
2022-12-31T10:59:21.447Z,46.78
2022-12-31T11:00:21.434Z,46.78
2022-12-31T11:01:21.560Z,46.78
2022-12-31T11:02:21.611Z,46.78
2022-12-31T11:03:28.871Z,46.78
2022-12-31T11:04:21.476Z,46.78
2022-12-31T11:05:21.454Z,46.88
2022-12-31T11:06:21.510Z,46.78
2022-12-31T11:07:21.510Z,46.78
2022-12-31T11:08:21.490Z,46.78
2022-12-31T11:09:21.544Z,46.78
2022-12-31T11:10:21.510Z,46.78
2022-12-31T11:11:21.533Z,46.78
2022-12-31T11:12:21.531Z,46.88
2022-12-31T11:13:21.551Z,46.78
2022-12-31T11:14:21.585Z,46.78
2022-12-31T11:15:21.656Z,46.88
2022-12-31T11:16:21.700Z,46.78
2022-12-31T11:17:21.641Z,46.78
2022-12-31T11:18:21.666Z,46.78
2022-12-31T11:19:21.705Z,46.78
2022-12-31T11:20:21.717Z,46.88
2022-12-31T11:21:28.003Z,46.88
2022-12-31T11:22:21.876Z,46.88
2022-12-31T11:23:21.780Z,46.88
2022-12-31T11:24:21.757Z,46.88
2022-12-31T11:25:21.776Z,46.88
2022-12-31T11:26:21.814Z,46.88
2022-12-31T11:27:21.785Z,46.98
2022-12-31T11:28:21.853Z,46.88
2022-12-31T11:29:21.827Z,46.88
2022-12-31T11:30:21.847Z,46.88
2022-12-31T11:31:22.035Z,46.88
2022-12-31T11:32:21.918Z,46.98
2022-12-31T11:33:21.940Z,46.98
2022-12-31T11:34:21.976Z,46.98
2022-12-31T11:35:22.024Z,46.88
2022-12-31T11:36:22.017Z,46.98
2022-12-31T11:37:21.991Z,46.98
2022-12-31T11:38:22.071Z,46.98
2022-12-31T11:39:28.942Z,46.98
2022-12-31T11:40:22.035Z,46.98
2022-12-31T11:41:22.035Z,46.98
2022-12-31T11:42:22.064Z,46.98
2022-12-31T11:43:22.048Z,46.98
2022-12-31T11:44:22.044Z,46.98
2022-12-31T11:45:22.053Z,46.98
2022-12-31T11:46:22.113Z,46.98
2022-12-31T11:47:22.056Z,46.98
2022-12-31T11:48:30.920Z,46.98
2022-12-31T11:49:22.039Z,46.98
2022-12-31T11:50:22.082Z,46.98
2022-12-31T11:51:22.095Z,46.98
2022-12-31T11:52:22.149Z,46.98
2022-12-31T11:53:22.110Z,46.88
2022-12-31T11:54:22.159Z,46.88
2022-12-31T11:55:22.149Z,46.98
2022-12-31T11:56:22.129Z,46.88
2022-12-31T11:57:22.148Z,46.88
2022-12-31T11:58:22.186Z,46.98
2022-12-31T11:59:22.209Z,46.98
2022-12-31T12:00:22.230Z,47.08
2022-12-31T12:01:22.275Z,47.19
2022-12-31T12:02:22.313Z,46.98
2022-12-31T12:03:22.315Z,46.98
2022-12-31T12:04:22.296Z,46.88
2022-12-31T12:05:22.279Z,46.88
2022-12-31T12:06:22.306Z,46.88
2022-12-31T12:07:22.322Z,46.98
2022-12-31T12:08:22.329Z,46.88
2022-12-31T12:09:22.364Z,46.98
2022-12-31T12:10:22.465Z,46.98
2022-12-31T12:11:22.418Z,46.88
2022-12-31T12:12:22.395Z,46.88
2022-12-31T12:13:22.424Z,46.88
2022-12-31T12:14:22.453Z,47.08
2022-12-31T12:15:22.429Z,46.86
2022-12-31T12:16:22.538Z,46.88
2022-12-31T12:17:22.470Z,47.28
2022-12-31T12:18:22.474Z,46.86
2022-12-31T12:19:22.503Z,46.76
2022-12-31T12:20:22.523Z,46.76
2022-12-31T12:21:22.523Z,46.76
2022-12-31T12:22:22.522Z,46.76
2022-12-31T12:23:22.534Z,46.66
2022-12-31T12:24:22.540Z,46.66
2022-12-31T12:25:22.537Z,46.66
2022-12-31T12:26:22.534Z,46.86
2022-12-31T12:27:22.610Z,46.66
2022-12-31T12:28:22.555Z,46.56
2022-12-31T12:29:22.591Z,46.66
2022-12-31T12:30:22.584Z,46.66
2022-12-31T12:31:22.691Z,46.56
2022-12-31T12:32:22.676Z,46.46
2022-12-31T12:33:22.642Z,46.46
2022-12-31T12:34:22.661Z,46.46
2022-12-31T12:35:22.687Z,46.66
2022-12-31T12:36:22.759Z,46.44
2022-12-31T12:37:22.734Z,46.54
2022-12-31T12:38:22.790Z,46.54
2022-12-31T12:39:22.755Z,46.34
2022-12-31T12:40:24.848Z,46.24
2022-12-31T12:41:22.812Z,46.44
2022-12-31T12:42:22.817Z,46.34
2022-12-31T12:43:22.802Z,46.34
2022-12-31T12:44:22.776Z,46.24
2022-12-31T12:45:22.804Z,46.24
2022-12-31T12:46:22.808Z,46.54
2022-12-31T12:47:22.783Z,46.34
2022-12-31T12:48:22.825Z,46.24
2022-12-31T12:49:22.801Z,46.24
2022-12-31T12:50:22.804Z,46.24
2022-12-31T12:51:22.855Z,46.24
2022-12-31T12:52:22.841Z,46.14